createdAt,value
2023-05-08T00:00:16.259Z,49.346809
2023-05-08T00:05:15.891Z,50.080142
2023-05-08T00:10:16.024Z,49.667376
2023-05-08T00:15:16.929Z,49.245390
2023-05-08T00:20:16.953Z,48.202837
2023-05-08T00:25:16.249Z,47.164085
2023-05-08T00:30:17.249Z,47.207801
2023-05-08T00:35:15.978Z,47.877465
2023-05-08T00:40:16.074Z,48.174468
2023-05-08T00:45:17.443Z,47.735461
2023-05-08T00:50:16.279Z,47.806338
2023-05-08T00:55:16.278Z,48.389362
2023-05-08T01:00:15.744Z,48.824648
2023-05-08T01:05:16.083Z,48.638732
2023-05-08T01:10:15.925Z,48.494326
2023-05-08T01:15:16.109Z,48.959155
2023-05-08T01:20:15.984Z,48.154610
2023-05-08T01:25:15.874Z,48.195035
2023-05-08T01:30:16.050Z,48.178014
2023-05-08T01:35:17.209Z,47.465035
2023-05-08T01:40:16.367Z,47.201408
2023-05-08T01:45:15.951Z,47.526241
2023-05-08T01:50:17.135Z,49.059574
2023-05-08T01:55:16.366Z,52.305674
2023-05-08T02:00:16.714Z,54.714085
2023-05-08T02:05:16.804Z,55.847183
2023-05-08T02:10:16.790Z,55.589510
2023-05-08T02:15:15.686Z,55.705556
2023-05-08T02:20:16.281Z,55.895105
2023-05-08T02:25:16.632Z,58.052778
2023-05-08T02:30:16.954Z,62.990210
2023-05-08T02:35:16.004Z,67.681818
2023-05-08T02:40:16.754Z,70.777622
2023-05-08T02:45:15.979Z,71.797902
2023-05-08T02:50:16.164Z,72.578322
2023-05-08T02:55:16.374Z,73.380556
2023-05-08T03:00:16.671Z,73.325517
2023-05-08T03:05:16.345Z,73.938194
2023-05-08T03:10:15.939Z,75.083562
2023-05-08T03:15:17.102Z,75.797260
2023-05-08T03:20:16.099Z,76.261905
2023-05-08T03:25:16.203Z,76.157931
2023-05-08T03:30:15.902Z,76.436552
2023-05-08T03:35:16.013Z,76.589510
2023-05-08T03:40:16.383Z,76.805634
2023-05-08T03:45:16.479Z,76.914085
2023-05-08T03:50:15.804Z,76.957042
2023-05-08T03:55:17.158Z,76.557042
2023-05-08T04:00:16.630Z,76.151408
2023-05-08T04:05:15.892Z,76.125352
2023-05-08T04:10:16.051Z,76.400000
2023-05-08T04:15:16.379Z,76.283803
2023-05-08T04:20:15.796Z,76.616783
2023-05-08T04:25:16.339Z,76.961972
2023-05-08T04:30:15.790Z,77.659441
2023-05-08T04:35:16.520Z,78.553191
2023-05-08T04:40:16.545Z,78.608451
2023-05-08T04:45:16.190Z,79.788732
2023-05-08T04:50:16.891Z,80.545390
2023-05-08T04:55:16.374Z,80.502817
2023-05-08T05:00:17.302Z,79.976224
2023-05-08T05:05:15.870Z,79.534266
2023-05-08T05:10:16.697Z,79.134507
2023-05-08T05:15:16.999Z,78.692199
2023-05-08T05:20:16.124Z,78.573944
2023-05-08T05:25:16.222Z,79.171329
2023-05-08T05:30:16.440Z,78.769231
2023-05-08T05:35:16.230Z,77.602098
2023-05-08T05:40:16.419Z,77.026056
2023-05-08T05:45:15.780Z,76.572028
2023-05-08T05:50:16.334Z,75.572535
2023-05-08T05:55:16.527Z,74.629078
2023-05-08T06:00:15.990Z,74.157746
2023-05-08T06:05:15.808Z,73.760563
2023-05-08T06:10:16.523Z,73.220567
2023-05-08T06:15:16.021Z,73.282270
2023-05-08T06:20:16.021Z,73.202143
2023-05-08T06:25:16.329Z,73.000000
2023-05-08T06:30:17.975Z,73.373759
2023-05-08T06:35:16.422Z,72.953521
2023-05-08T06:40:16.146Z,72.867376
2023-05-08T06:45:17.049Z,72.831206
2023-05-08T06:50:16.546Z,73.177465
2023-05-08T06:55:16.517Z,73.245390
2023-05-08T07:00:17.870Z,73.956028
2023-05-08T07:05:17.060Z,74.260563
2023-05-08T07:10:15.996Z,74.790845
2023-05-08T07:15:25.622Z,74.290780
2023-05-08T07:20:16.129Z,73.139583
2023-05-08T07:25:15.840Z,73.152817
2023-05-08T07:30:16.021Z,73.835915
2023-05-08T07:35:17.052Z,73.509929
2023-05-08T07:40:16.768Z,72.800704
2023-05-08T07:45:16.961Z,72.370423
2023-05-08T07:50:15.911Z,71.517021
2023-05-08T07:55:15.796Z,72.209091
2023-05-08T08:00:16.125Z,73.014583
2023-05-08T08:05:16.643Z,72.479021
2023-05-08T08:10:16.391Z,72.502759
2023-05-08T08:15:16.141Z,72.437241
2023-05-08T08:20:16.457Z,73.091608
2023-05-08T08:25:16.246Z,72.597945
2023-05-08T08:30:20.033Z,73.317361
2023-05-08T08:35:16.154Z,72.976224
2023-05-08T08:40:16.285Z,72.904167
2023-05-08T08:45:16.024Z,73.209589
2023-05-08T08:50:16.736Z,73.383333
2023-05-08T08:55:16.486Z,73.525175
2023-05-08T09:00:16.185Z,73.025694
2023-05-08T09:05:15.974Z,73.334483
2023-05-08T09:10:17.923Z,73.657639
2023-05-08T09:15:16.568Z,74.650000
2023-05-08T09:20:16.400Z,75.268056
2023-05-08T09:25:16.029Z,76.057639
2023-05-08T09:30:17.220Z,75.383562
2023-05-08T09:35:16.143Z,75.590345
2023-05-08T09:40:15.764Z,75.345833
2023-05-08T09:45:15.962Z,75.176552
2023-05-08T09:50:16.670Z,74.836111
2023-05-08T09:55:16.368Z,73.990972
2023-05-08T10:00:17.164Z,73.786620
2023-05-08T10:05:16.395Z,74.132394
2023-05-08T10:10:16.656Z,73.995070
2023-05-08T10:15:15.998Z,72.871127
2023-05-08T10:20:16.087Z,72.140141
2023-05-08T10:25:15.790Z,72.775177
2023-05-08T10:30:16.397Z,74.678014
2023-05-08T10:35:15.857Z,76.012676
2023-05-08T10:40:16.718Z,77.550350
2023-05-08T10:45:16.282Z,79.727465
2023-05-08T10:50:16.621Z,80.437063
2023-05-08T10:55:16.970Z,80.041259
2023-05-08T11:00:16.439Z,79.581944
2023-05-08T11:05:16.012Z,79.492466
2023-05-08T11:10:16.709Z,78.877083
2023-05-08T11:15:16.019Z,78.258333
2023-05-08T11:20:17.317Z,77.945775
2023-05-08T11:25:15.711Z,77.647183
2023-05-08T11:30:17.375Z,77.260993
2023-05-08T11:35:16.185Z,77.527465
2023-05-08T11:40:16.593Z,78.463380
2023-05-08T11:45:16.428Z,78.075177
2023-05-08T11:50:16.876Z,78.325352
2023-05-08T11:55:16.544Z,78.485915
2023-05-08T12:00:17.153Z,77.886111
2023-05-08T12:05:16.389Z,77.559722
2023-05-08T12:10:17.598Z,77.666434
2023-05-08T12:15:16.576Z,77.216901
2023-05-08T12:20:17.573Z,76.636170
2023-05-08T12:25:17.024Z,77.185211
2023-05-08T12:30:16.595Z,77.826761
2023-05-08T12:35:16.260Z,77.709859
2023-05-08T12:40:16.932Z,78.378014
2023-05-08T12:45:16.223Z,78.911189
2023-05-08T12:50:16.593Z,78.851049
2023-05-08T12:55:16.042Z,78.752778
2023-05-08T13:00:16.423Z,78.718182
2023-05-08T13:05:17.402Z,78.609091
2023-05-08T13:10:16.168Z,78.994483
2023-05-08T13:15:15.903Z,79.533566
2023-05-08T13:20:15.984Z,79.385106
2023-05-08T13:25:16.058Z,78.821986
2023-05-08T13:30:15.874Z,77.811972
2023-05-08T13:35:16.152Z,76.754930
2023-05-08T13:40:15.889Z,77.825000
2023-05-08T13:45:16.978Z,77.562238
2023-05-08T13:50:16.440Z,76.854167
2023-05-08T13:55:16.738Z,76.755782
2023-05-08T14:00:16.405Z,77.141379
2023-05-08T14:05:17.164Z,76.990141
2023-05-08T14:10:15.947Z,77.057746
2023-05-08T14:15:17.033Z,77.016197
2023-05-08T14:20:16.324Z,76.829371
2023-05-08T14:25:16.766Z,77.006338
2023-05-08T14:30:16.347Z,77.004225
2023-05-08T14:35:15.852Z,76.194444
2023-05-08T14:40:15.897Z,76.751724
2023-05-08T14:45:16.249Z,74.950345
2023-05-08T14:50:15.960Z,74.930345
2023-05-08T14:55:16.895Z,74.318056
2023-05-08T15:00:16.378Z,74.149655
2023-05-08T15:06:22.428Z,73.103497
2023-05-08T15:10:16.769Z,72.896503
2023-05-08T15:15:16.478Z,73.892308
2023-05-08T15:20:16.417Z,73.268310
2023-05-08T15:25:16.555Z,74.784028
2023-05-08T15:30:16.122Z,75.559441
2023-05-08T15:35:16.452Z,75.030556
2023-05-08T15:40:15.926Z,74.495172
2023-05-08T15:45:16.257Z,74.088194
2023-05-08T15:50:16.491Z,73.608333
2023-05-08T15:55:16.371Z,73.276596
2023-05-08T16:00:16.796Z,73.216901
2023-05-08T16:05:16.426Z,71.172535
2023-05-08T16:10:16.643Z,70.399301
2023-05-08T16:15:16.144Z,71.163830
2023-05-08T16:20:16.355Z,70.701399
2023-05-08T16:25:16.237Z,70.739437
2023-05-08T16:30:16.080Z,71.236620
2023-05-08T16:35:16.749Z,70.004965
2023-05-08T16:40:15.851Z,69.457042
2023-05-08T16:45:16.376Z,70.505674
2023-05-08T16:50:16.624Z,71.272414
2023-05-08T16:55:16.465Z,71.549650
2023-05-08T17:00:16.160Z,71.272535
2023-05-08T17:05:16.210Z,70.406338
2023-05-08T17:10:15.925Z,72.383217
2023-05-08T17:15:15.969Z,72.742958
2023-05-08T17:20:16.707Z,72.608966
2023-05-08T17:25:16.302Z,72.136301
2023-05-08T17:30:16.513Z,71.510274
2023-05-08T17:35:15.706Z,71.670548
2023-05-08T17:40:16.348Z,72.581944
2023-05-08T17:45:16.096Z,72.031469
2023-05-08T17:50:17.015Z,71.492254
2023-05-08T17:55:15.754Z,70.783217
2023-05-08T18:00:17.054Z,71.275352
2023-05-08T18:05:16.260Z,71.501399
2023-05-08T18:10:16.057Z,71.384722
2023-05-08T18:15:16.468Z,69.880000
2023-05-08T18:20:16.137Z,69.488194
2023-05-08T18:25:16.342Z,69.893793
2023-05-08T18:30:16.309Z,71.119863
2023-05-08T18:35:16.039Z,70.215753
2023-05-08T18:40:16.293Z,70.308333
2023-05-08T18:45:16.506Z,70.361379
2023-05-08T18:50:16.782Z,70.671831
2023-05-08T18:55:15.932Z,70.923077
2023-05-08T19:00:15.889Z,70.715385
2023-05-08T19:05:16.301Z,70.504196
2023-05-08T19:10:16.117Z,71.338298
2023-05-08T19:15:16.332Z,70.995775
2023-05-08T19:20:16.142Z,70.861806
2023-05-08T19:25:15.901Z,69.913287
2023-05-08T19:30:16.214Z,70.288194
2023-05-08T19:35:15.826Z,70.387413
2023-05-08T19:40:16.184Z,70.107092
2023-05-08T19:45:16.809Z,69.797163
2023-05-08T19:50:16.789Z,69.121528
2023-05-08T19:55:16.124Z,68.439860
2023-05-08T20:00:16.400Z,68.928472
2023-05-08T20:05:22.411Z,69.102098
2023-05-08T20:10:16.251Z,68.966667
2023-05-08T20:15:15.845Z,68.973427
2023-05-08T20:20:16.876Z,68.544056
2023-05-08T20:25:15.960Z,67.068966
2023-05-08T20:30:16.917Z,67.443750
2023-05-08T20:35:16.456Z,66.906993
2023-05-08T20:40:16.287Z,67.454167
2023-05-08T20:45:16.041Z,65.108333
2023-05-08T20:50:16.664Z,65.062759
2023-05-08T20:55:16.537Z,63.594406
2023-05-08T21:00:16.099Z,61.877778
2023-05-08T21:05:16.750Z,61.126056
2023-05-08T21:10:16.937Z,60.608333
2023-05-08T21:15:16.289Z,61.483217
2023-05-08T21:20:17.398Z,62.133803
2023-05-08T21:25:16.393Z,60.766197
2023-05-08T21:30:16.925Z,60.808451
2023-05-08T21:35:16.278Z,60.997902
2023-05-08T21:40:17.116Z,61.389437
2023-05-08T21:45:16.117Z,61.551064
2023-05-08T21:50:16.108Z,62.530282
2023-05-08T21:55:16.157Z,61.923944
2023-05-08T22:00:17.225Z,62.455634
2023-05-08T22:05:17.308Z,62.476056
2023-05-08T22:10:15.841Z,62.042657
2023-05-08T22:15:28.935Z,63.004225
2023-05-08T22:20:16.912Z,61.690210
2023-05-08T22:25:17.152Z,61.952482
2023-05-08T22:30:16.638Z,61.540141
2023-05-08T22:35:16.165Z,59.788028
2023-05-08T22:40:16.313Z,60.245000
2023-05-08T22:45:17.152Z,60.263121
2023-05-08T22:50:15.816Z,58.619149
2023-05-08T22:55:17.310Z,57.505674
2023-05-08T23:00:15.816Z,56.859574
2023-05-08T23:05:16.364Z,56.818440
2023-05-08T23:10:16.125Z,56.752482
2023-05-08T23:15:16.343Z,56.398582
2023-05-08T23:20:15.721Z,56.166901
2023-05-08T23:25:16.247Z,57.558156
2023-05-08T23:30:16.775Z,58.229577
2023-05-08T23:35:16.259Z,58.428169
2023-05-08T23:40:16.222Z,58.573050
2023-05-08T23:45:16.538Z,57.691549
2023-05-08T23:50:16.989Z,57.041304
2023-05-08T23:55:16.301Z,56.636170
